createdAt,value
2022-11-13T00:02:14.811Z,101736.12
2022-11-13T00:05:06.301Z,101740.30
2022-11-13T00:07:56.939Z,101738.61
2022-11-13T00:10:47.585Z,101740.19
2022-11-13T00:13:38.679Z,101736.07
2022-11-13T00:16:29.478Z,101732.52
2022-11-13T00:19:20.215Z,101728.23
2022-11-13T00:22:10.861Z,101724.57
2022-11-13T00:25:01.456Z,101722.17
2022-11-13T00:27:52.339Z,101722.02
2022-11-13T00:30:42.862Z,101722.86
2022-11-13T00:36:44.163Z,101723.27
2022-11-13T00:39:34.862Z,101725.51
2022-11-13T00:42:25.796Z,101725.20
2022-11-13T00:45:16.527Z,101723.98
2022-11-13T00:48:07.766Z,101726.83
2022-11-13T00:50:58.391Z,101722.42
2022-11-13T00:53:48.841Z,101723.61
2022-11-13T00:56:39.643Z,101719.59
2022-11-13T00:59:30.168Z,101716.67
2022-11-13T01:02:20.613Z,101718.65
2022-11-13T01:05:11.727Z,101720.98
2022-11-13T01:08:02.629Z,101716.38
2022-11-13T01:10:53.949Z,101714.58
2022-11-13T01:13:46.908Z,101711.63
2022-11-13T01:16:37.250Z,101712.02
2022-11-13T01:19:27.775Z,101711.02
2022-11-13T01:22:18.579Z,101711.31
2022-11-13T01:25:10.533Z,101705.05
2022-11-13T01:28:01.319Z,101708.35
2022-11-13T01:30:51.815Z,101707.09
2022-11-13T01:33:42.800Z,101710.65
2022-11-13T01:36:34.628Z,101708.54
2022-11-13T01:39:25.510Z,101702.91
2022-11-13T01:42:16.468Z,101705.16
2022-11-13T01:45:45.089Z,101697.69
2022-11-13T01:48:39.811Z,101694.11
2022-11-13T01:51:34.276Z,101693.79
2022-11-13T01:54:27.486Z,101693.73
2022-11-13T01:57:20.673Z,101690.83
2022-11-13T02:00:14.318Z,101691.20
2022-11-13T02:03:05.686Z,101687.66
2022-11-13T02:05:57.798Z,101684.10
2022-11-13T02:08:50.266Z,101686.30
2022-11-13T02:11:41.457Z,101686.02
2022-11-13T02:14:32.403Z,101681.30
2022-11-13T02:17:29.314Z,101679.84
2022-11-13T02:20:22.653Z,101683.75
2022-11-13T02:23:22.196Z,101683.91
2022-11-13T02:26:14.170Z,101686.63
2022-11-13T02:29:04.900Z,101689.40
2022-11-13T02:31:55.935Z,101687.45
2022-11-13T02:34:46.228Z,101677.29
2022-11-13T02:37:36.932Z,101680.21
2022-11-13T02:40:28.583Z,101674.47
2022-11-13T02:43:18.952Z,101671.09
2022-11-13T02:46:09.550Z,101669.30
2022-11-13T02:49:00.514Z,101668.11
2022-11-13T02:51:51.472Z,101661.65
2022-11-13T02:54:41.941Z,101665.53
2022-11-13T02:57:32.567Z,101665.70
2022-11-13T03:00:23.281Z,101663.95
2022-11-13T03:03:14.049Z,101667.89
2022-11-13T03:06:04.893Z,101661.94
2022-11-13T03:08:55.533Z,101664.75
2022-11-13T03:11:47.006Z,101661.86
2022-11-13T03:14:37.963Z,101664.13
2022-11-13T03:17:28.665Z,101665.91
2022-11-13T03:20:19.708Z,101662.91
2022-11-13T03:23:10.122Z,101657.13
2022-11-13T03:26:05.724Z,101649.23
2022-11-13T03:28:54.705Z,101649.11
2022-11-13T03:31:45.363Z,101651.92
2022-11-13T03:34:36.365Z,101657.38
2022-11-13T03:37:27.246Z,101663.54
2022-11-13T03:40:18.244Z,101664.70
2022-11-13T03:43:08.958Z,101666.41
2022-11-13T03:45:59.814Z,101677.11
2022-11-13T03:48:50.292Z,101675.73
2022-11-13T03:51:40.810Z,101676.64
2022-11-13T03:54:31.775Z,101676.46
2022-11-13T03:57:22.957Z,101677.46
2022-11-13T04:00:16.800Z,101680.70
2022-11-13T04:03:07.949Z,101681.77
2022-11-13T04:05:58.214Z,101683.49
2022-11-13T04:08:49.021Z,101684.89
2022-11-13T04:11:39.883Z,101682.70
2022-11-13T04:14:30.665Z,101683.68
2022-11-13T04:17:21.164Z,101684.94
2022-11-13T04:20:13.503Z,101684.74
2022-11-13T04:23:12.666Z,101689.86
2022-11-13T04:26:03.618Z,101692.67
2022-11-13T04:28:54.142Z,101691.16
2022-11-13T04:31:45.140Z,101690.31
2022-11-13T04:34:35.918Z,101687.88
2022-11-13T04:37:26.316Z,101686.45
2022-11-13T04:40:16.927Z,101685.11
2022-11-13T04:43:07.886Z,101691.25
2022-11-13T04:45:58.207Z,101689.79
2022-11-13T04:48:49.049Z,101690.59
2022-11-13T04:51:39.420Z,101692.87
2022-11-13T04:54:30.250Z,101696.02
2022-11-13T04:57:21.414Z,101695.74
2022-11-13T05:00:14.466Z,101693.00
2022-11-13T05:03:04.820Z,101692.43
2022-11-13T05:05:55.263Z,101694.70
2022-11-13T05:08:47.680Z,101686.83
2022-11-13T05:11:38.845Z,101687.12
2022-11-13T05:14:29.397Z,101688.94
2022-11-13T05:17:20.122Z,101693.58
2022-11-13T05:20:12.750Z,101692.52
2022-11-13T05:23:03.142Z,101687.23
2022-11-13T05:25:54.612Z,101689.01
2022-11-13T05:28:45.985Z,101690.25
2022-11-13T05:31:36.786Z,101688.31
2022-11-13T05:34:27.641Z,101691.80
2022-11-13T05:37:18.344Z,101696.23
2022-11-13T05:40:12.836Z,101696.02
2022-11-13T05:43:03.796Z,101701.86
2022-11-13T05:46:00.054Z,101699.71
2022-11-13T05:48:55.853Z,101702.71
2022-11-13T05:51:47.009Z,101706.08
2022-11-13T05:54:37.977Z,101703.79
2022-11-13T05:57:28.397Z,101708.40
2022-11-13T06:00:21.412Z,101707.98
2022-11-13T06:03:12.131Z,101707.31
2022-11-13T06:06:02.753Z,101706.64
2022-11-13T06:08:54.328Z,101706.73
2022-11-13T06:11:45.285Z,101704.21
2022-11-13T06:14:36.090Z,101699.67
2022-11-13T06:17:26.693Z,101699.68
2022-11-13T06:20:17.472Z,101702.05
2022-11-13T06:23:08.329Z,101703.64
2022-11-13T06:26:05.124Z,101704.25
2022-11-13T06:28:56.581Z,101702.96
2022-11-13T06:31:47.479Z,101702.52
2022-11-13T06:34:37.950Z,101705.86
2022-11-13T06:37:31.471Z,101706.69
2022-11-13T06:40:25.729Z,101707.23
2022-11-13T06:43:16.401Z,101711.27
2022-11-13T06:46:09.198Z,101706.17
2022-11-13T06:49:00.756Z,101709.98
2022-11-13T06:51:51.683Z,101708.90
2022-11-13T06:54:42.378Z,101709.98
2022-11-13T06:57:33.096Z,101712.05
2022-11-13T07:00:24.105Z,101713.39
2022-11-13T07:03:19.288Z,101715.09
2022-11-13T07:06:14.081Z,101710.84
2022-11-13T07:09:04.587Z,101708.10
2022-11-13T07:11:55.134Z,101710.26
2022-11-13T07:14:45.889Z,101710.58
2022-11-13T07:17:36.925Z,101712.45
2022-11-13T07:20:27.397Z,101709.33
2022-11-13T07:23:17.844Z,101709.05
2022-11-13T07:26:09.111Z,101710.38
2022-11-13T07:28:59.800Z,101705.34
2022-11-13T07:31:50.259Z,101704.55
2022-11-13T07:34:40.682Z,101704.63
2022-11-13T07:37:31.409Z,101700.58
2022-11-13T07:40:22.396Z,101702.27
2022-11-13T07:43:13.123Z,101701.22
2022-11-13T07:46:04.111Z,101701.54
2022-11-13T07:48:55.016Z,101698.33
2022-11-13T07:51:45.925Z,101698.89
2022-11-13T07:54:37.522Z,101697.31
2022-11-13T07:57:28.385Z,101700.68
2022-11-13T08:00:20.669Z,101694.97
2022-11-13T08:03:13.853Z,101694.41
2022-11-13T08:06:06.222Z,101699.62
2022-11-13T08:08:56.896Z,101699.63
2022-11-13T08:11:47.501Z,101705.55
2022-11-13T08:14:37.896Z,101708.48
2022-11-13T08:17:28.448Z,101707.36
2022-11-13T08:20:20.041Z,101705.57
2022-11-13T08:23:11.207Z,101706.75
2022-11-13T08:26:07.130Z,101710.77
2022-11-13T08:28:57.936Z,101709.10
2022-11-13T08:31:48.946Z,101708.91
2022-11-13T08:34:39.498Z,101715.23
2022-11-13T08:37:30.275Z,101714.05
2022-11-13T08:40:21.592Z,101719.14
2022-11-13T08:43:12.450Z,101718.84
2022-11-13T08:46:03.202Z,101719.81
2022-11-13T08:48:53.957Z,101720.77
2022-11-13T08:51:44.582Z,101715.50
2022-11-13T08:54:35.467Z,101718.48
2022-11-13T08:57:26.169Z,101719.91
2022-11-13T09:00:17.807Z,101719.52
2022-11-13T09:03:10.364Z,101712.80
2022-11-13T09:06:00.979Z,101716.52
2022-11-13T09:08:51.896Z,101717.62
2022-11-13T09:11:42.268Z,101717.83
2022-11-13T09:14:33.073Z,101712.11
2022-11-13T09:17:23.724Z,101706.38
2022-11-13T09:20:15.600Z,101707.44
2022-11-13T09:23:09.995Z,101710.16
2022-11-13T09:26:03.901Z,101712.38
2022-11-13T09:28:54.777Z,101712.17
2022-11-13T09:31:45.777Z,101711.05
2022-11-13T09:34:36.286Z,101708.97
2022-11-13T09:37:27.120Z,101709.00
2022-11-13T09:40:28.187Z,101712.64
2022-11-13T09:43:28.720Z,101707.77
2022-11-13T09:46:27.695Z,101706.77
2022-11-13T09:49:20.473Z,101707.47
2022-11-13T09:52:16.625Z,101709.10
2022-11-13T09:55:10.762Z,101711.27
2022-11-13T09:58:08.284Z,101716.30
2022-11-13T10:00:59.843Z,101713.51
2022-11-13T10:04:02.364Z,101708.99
2022-11-13T10:07:09.884Z,101710.89
2022-11-13T10:10:17.036Z,101708.98
2022-11-13T10:13:12.579Z,101705.30
2022-11-13T10:16:05.329Z,101699.50
2022-11-13T10:19:01.844Z,101697.00
2022-11-13T10:22:31.170Z,101692.01
2022-11-13T10:25:16.425Z,101690.60
2022-11-13T10:28:43.625Z,101688.23
2022-11-13T10:31:26.503Z,101681.68
2022-11-13T10:34:18.434Z,101677.46
2022-11-13T10:37:28.409Z,101674.91
2022-11-13T10:40:28.796Z,101675.24
2022-11-13T10:43:22.435Z,101673.15
2022-11-13T10:46:22.928Z,101671.70
2022-11-13T10:49:21.727Z,101674.00
2022-11-13T10:52:21.205Z,101673.09
2022-11-13T10:55:22.976Z,101674.02
2022-11-13T10:58:18.451Z,101673.34
2022-11-13T11:01:23.040Z,101667.52
2022-11-13T11:04:21.237Z,101662.48
2022-11-13T11:07:20.977Z,101666.30
2022-11-13T11:10:34.026Z,101666.14
2022-11-13T11:13:25.624Z,101667.66
2022-11-13T11:16:22.881Z,101664.57
2022-11-13T11:19:16.630Z,101664.50
2022-11-13T11:22:16.139Z,101663.21
2022-11-13T11:25:13.243Z,101662.92
2022-11-13T11:28:12.498Z,101664.33
2022-11-13T11:31:11.694Z,101665.48
2022-11-13T11:34:11.207Z,101660.48
2022-11-13T11:37:08.698Z,101659.15
2022-11-13T11:40:05.366Z,101655.27
2022-11-13T11:43:02.544Z,101654.11
2022-11-13T11:45:54.038Z,101649.34
2022-11-13T11:48:44.843Z,101649.20
2022-11-13T11:51:43.174Z,101646.73
2022-11-13T11:54:43.861Z,101644.55
2022-11-13T11:57:49.874Z,101646.81
2022-11-13T12:00:48.429Z,101648.68
2022-11-13T12:04:07.657Z,101647.85
2022-11-13T12:07:15.608Z,101642.06
2022-11-13T12:10:25.545Z,101640.31
2022-11-13T12:13:28.411Z,101637.39
2022-11-13T12:16:27.428Z,101636.21
2022-11-13T12:19:29.097Z,101633.67
2022-11-13T12:22:36.507Z,101633.23
2022-11-13T12:25:35.864Z,101629.66
2022-11-13T12:28:40.628Z,101626.25
2022-11-13T12:31:47.940Z,101621.30
2022-11-13T12:34:43.717Z,101620.52
2022-11-13T12:37:42.990Z,101618.58
2022-11-13T12:40:44.016Z,101615.77
2022-11-13T12:43:54.605Z,101613.92
2022-11-13T12:46:46.760Z,101614.60
2022-11-13T12:49:38.870Z,101614.46
2022-11-13T12:52:30.371Z,101613.13
2022-11-13T12:55:30.865Z,101610.50
2022-11-13T12:58:26.119Z,101605.55
2022-11-13T13:01:21.459Z,101606.77
2022-11-13T13:04:35.859Z,101605.85
2022-11-13T13:07:43.714Z,101602.52
2022-11-13T13:10:46.400Z,101603.06
2022-11-13T13:13:45.881Z,101603.39
2022-11-13T13:16:37.097Z,101597.45
2022-11-13T13:19:30.361Z,101597.07
2022-11-13T13:22:31.046Z,101601.76
2022-11-13T13:25:29.762Z,101599.10
2022-11-13T13:28:24.099Z,101598.62
2022-11-13T13:31:23.791Z,101596.02
2022-11-13T13:34:38.376Z,101592.37
2022-11-13T13:37:38.529Z,101599.17
2022-11-13T13:40:39.288Z,101601.81
2022-11-13T13:43:45.197Z,101601.02
2022-11-13T13:46:36.977Z,101601.39
2022-11-13T13:49:28.910Z,101603.38
2022-11-13T13:52:28.111Z,101601.27
2022-11-13T13:55:26.647Z,101599.07
2022-11-13T13:58:20.584Z,101600.66
2022-11-13T14:01:19.629Z,101598.85
2022-11-13T14:04:16.421Z,101597.31
2022-11-13T14:07:19.959Z,101591.08
2022-11-13T14:10:19.152Z,101586.86
2022-11-13T14:13:15.230Z,101582.21
2022-11-13T14:16:09.177Z,101573.27
2022-11-13T14:19:06.977Z,101573.39
2022-11-13T14:22:01.368Z,101574.92
2022-11-13T14:24:55.027Z,101571.70
2022-11-13T14:27:45.772Z,101567.66
2022-11-13T14:30:36.343Z,101569.48
2022-11-13T14:33:36.314Z,101568.04
2022-11-13T14:36:31.757Z,101569.95
2022-11-13T14:39:27.755Z,101568.91
2022-11-13T14:42:26.219Z,101567.48
2022-11-13T14:45:20.088Z,101572.15
2022-11-13T14:48:22.754Z,101563.47
2022-11-13T14:51:27.022Z,101558.56
2022-11-13T14:54:53.242Z,101563.38
2022-11-13T14:57:51.513Z,101564.94
2022-11-13T15:00:42.779Z,101559.14
2022-11-13T15:03:34.085Z,101555.13
2022-11-13T15:06:26.463Z,101552.72
2022-11-13T15:09:18.882Z,101549.52
2022-11-13T15:12:13.320Z,101547.33
2022-11-13T15:15:04.205Z,101541.30
2022-11-13T15:17:55.262Z,101540.64
2022-11-13T15:20:46.964Z,101538.98
2022-11-13T15:23:37.590Z,101531.82
2022-11-13T15:26:28.732Z,101526.13
2022-11-13T15:29:19.329Z,101529.31
2022-11-13T15:32:13.259Z,101530.38
2022-11-13T15:35:05.176Z,101533.13
2022-11-13T15:37:56.203Z,101530.88
2022-11-13T15:40:46.619Z,101528.80
2022-11-13T15:43:37.540Z,101523.61
2022-11-13T15:46:28.185Z,101524.98
2022-11-13T15:49:18.857Z,101527.45
2022-11-13T15:52:10.379Z,101528.33
2022-11-13T15:55:02.443Z,101532.11
2022-11-13T15:57:53.505Z,101527.23
2022-11-13T16:00:46.173Z,101522.95
2022-11-13T16:03:40.182Z,101519.92
2022-11-13T16:06:31.521Z,101518.71
2022-11-13T16:09:22.255Z,101514.43
2022-11-13T16:12:14.002Z,101511.48
2022-11-13T16:15:05.218Z,101505.03
2022-11-13T16:17:58.796Z,101499.74
2022-11-13T16:20:49.696Z,101497.92
2022-11-13T16:23:40.864Z,101497.55
2022-11-13T16:26:31.847Z,101496.45
2022-11-13T16:29:24.854Z,101500.84
2022-11-13T16:32:18.062Z,101496.85
2022-11-13T16:35:10.579Z,101495.05
2022-11-13T16:38:01.490Z,101501.21
2022-11-13T16:40:52.484Z,101504.52
2022-11-13T16:43:43.152Z,101511.11
2022-11-13T16:46:35.491Z,101517.29
2022-11-13T16:49:26.067Z,101514.52
2022-11-13T16:52:16.693Z,101515.80
2022-11-13T16:55:08.929Z,101514.15
2022-11-13T16:57:59.945Z,101510.90
2022-11-13T17:00:50.511Z,101510.90
2022-11-13T17:03:40.863Z,101513.06
2022-11-13T17:06:32.614Z,101514.52
2022-11-13T17:09:23.319Z,101520.13
2022-11-13T17:12:17.004Z,101515.63
2022-11-13T17:15:11.576Z,101517.90
2022-11-13T17:18:02.227Z,101516.09
2022-11-13T17:20:54.959Z,101516.92
2022-11-13T17:23:45.842Z,101520.98
2022-11-13T17:26:36.570Z,101519.67
2022-11-13T17:29:27.940Z,101521.51
2022-11-13T17:32:18.953Z,101529.48
2022-11-13T17:35:10.508Z,101531.64
2022-11-13T17:38:01.174Z,101532.10
2022-11-13T17:40:51.595Z,101530.67
2022-11-13T17:43:43.449Z,101533.23
2022-11-13T17:46:34.382Z,101530.83
2022-11-13T17:49:24.805Z,101529.64
2022-11-13T17:52:15.559Z,101533.36
2022-11-13T17:55:07.773Z,101534.11
2022-11-13T17:58:01.881Z,101534.05
2022-11-13T18:00:53.888Z,101535.11
2022-11-13T18:03:44.868Z,101532.27
2022-11-13T18:06:35.293Z,101534.09
2022-11-13T18:09:26.006Z,101536.98
2022-11-13T18:12:16.445Z,101538.13
2022-11-13T18:15:08.497Z,101537.80
2022-11-13T18:17:59.112Z,101547.34
2022-11-13T18:20:49.909Z,101551.95
2022-11-13T18:23:40.637Z,101549.84
2022-11-13T18:26:32.467Z,101548.04
2022-11-13T18:29:23.426Z,101553.73
2022-11-13T18:32:14.548Z,101550.84
2022-11-13T18:35:06.226Z,101557.85
2022-11-13T18:37:57.356Z,101557.17
2022-11-13T18:40:48.160Z,101554.63
2022-11-13T18:43:39.295Z,101552.16
2022-11-13T18:46:30.871Z,101553.26
2022-11-13T18:49:21.804Z,101547.05
2022-11-13T18:52:12.817Z,101544.22
2022-11-13T18:55:03.769Z,101540.96
2022-11-13T18:57:54.733Z,101538.69
2022-11-13T19:00:45.663Z,101542.50
2022-11-13T19:03:36.753Z,101541.55
2022-11-13T19:06:28.093Z,101543.36
2022-11-13T19:09:19.870Z,101539.08
2022-11-13T19:12:10.945Z,101538.08
2022-11-13T19:15:03.017Z,101543.77
2022-11-13T19:17:53.770Z,101544.68
2022-11-13T19:20:44.398Z,101547.86
2022-11-13T19:23:35.355Z,101548.08
2022-11-13T19:26:26.801Z,101544.91
2022-11-13T19:29:17.401Z,101542.55
2022-11-13T19:32:08.121Z,101539.39
2022-11-13T19:34:58.678Z,101536.38
2022-11-13T19:37:49.330Z,101540.64
2022-11-13T19:40:39.931Z,101539.67
2022-11-13T19:43:31.838Z,101535.75
2022-11-13T19:46:23.230Z,101538.75
2022-11-13T19:49:13.914Z,101538.41
2022-11-13T19:52:04.814Z,101538.05
2022-11-13T19:54:55.367Z,101538.42
2022-11-13T19:57:46.448Z,101534.66
2022-11-13T20:00:37.493Z,101530.15
2022-11-13T20:03:28.753Z,101536.15
2022-11-13T20:06:19.788Z,101535.93
2022-11-13T20:09:11.053Z,101531.63
2022-11-13T20:12:01.993Z,101531.47
2022-11-13T20:14:52.576Z,101534.00
2022-11-13T20:17:43.548Z,101534.88
2022-11-13T20:20:34.454Z,101535.23
2022-11-13T20:23:26.081Z,101532.69
2022-11-13T20:26:17.157Z,101524.92
2022-11-13T20:29:07.845Z,101527.23
2022-11-13T20:31:58.915Z,101527.05
2022-11-13T20:34:49.646Z,101525.05
2022-11-13T20:37:40.107Z,101527.94
2022-11-13T20:40:30.710Z,101526.70
2022-11-13T20:43:21.281Z,101522.41
2022-11-13T20:46:14.493Z,101519.91
2022-11-13T20:49:05.354Z,101517.80
2022-11-13T20:51:57.443Z,101516.80
2022-11-13T20:54:48.372Z,101516.16
2022-11-13T20:57:41.067Z,101513.94
2022-11-13T21:00:32.030Z,101511.92
2022-11-13T21:03:22.883Z,101508.86
2022-11-13T21:06:15.839Z,101507.86
2022-11-13T21:09:06.669Z,101510.20
2022-11-13T21:11:57.501Z,101508.82
2022-11-13T21:14:48.535Z,101510.31
2022-11-13T21:17:39.116Z,101513.70
2022-11-13T21:20:29.988Z,101504.91
2022-11-13T21:23:21.055Z,101501.90
2022-11-13T21:26:12.141Z,101503.56
2022-11-13T21:29:03.153Z,101504.45
2022-11-13T21:31:53.946Z,101508.73
2022-11-13T21:34:46.685Z,101512.20
2022-11-13T21:37:37.512Z,101507.80
2022-11-13T21:40:28.214Z,101509.90
2022-11-13T21:43:18.728Z,101506.09
2022-11-13T21:46:09.449Z,101502.30
2022-11-13T21:49:02.585Z,101498.70
2022-11-13T21:51:53.408Z,101498.52
2022-11-13T21:54:43.882Z,101499.91
2022-11-13T21:57:34.762Z,101501.33
2022-11-13T22:00:25.568Z,101499.00
2022-11-13T22:03:16.346Z,101495.39
2022-11-13T22:06:18.696Z,101499.95
2022-11-13T22:09:17.669Z,101496.48
2022-11-13T22:12:08.776Z,101493.02
2022-11-13T22:14:59.550Z,101491.64
2022-11-13T22:17:50.078Z,101485.13
2022-11-13T22:20:40.631Z,101483.95
2022-11-13T22:23:31.310Z,101484.79
2022-11-13T22:26:22.962Z,101483.48
2022-11-13T22:29:14.743Z,101478.39
2022-11-13T22:32:05.554Z,101476.98
2022-11-13T22:34:55.838Z,101472.92
2022-11-13T22:37:46.615Z,101471.64
2022-11-13T22:40:36.886Z,101470.48
2022-11-13T22:43:27.309Z,101464.58
2022-11-13T22:46:19.425Z,101463.91
2022-11-13T22:49:12.101Z,101468.48
2022-11-13T22:52:02.332Z,101468.64
2022-11-13T22:54:52.492Z,101463.20
2022-11-13T22:57:42.913Z,101465.87
2022-11-13T23:00:33.553Z,101467.59
2022-11-13T23:03:24.026Z,101466.86
2022-11-13T23:06:15.924Z,101461.41
2022-11-13T23:09:07.511Z,101456.44
2022-11-13T23:11:57.969Z,101456.77
2022-11-13T23:14:48.979Z,101454.98
2022-11-13T23:17:39.811Z,101456.49
2022-11-13T23:20:30.129Z,101451.21
2022-11-13T23:23:20.833Z,101445.59
2022-11-13T23:26:12.887Z,101441.80
2022-11-13T23:29:03.466Z,101442.16
2022-11-13T23:31:53.989Z,101443.08
2022-11-13T23:35:00.503Z,101441.02
2022-11-13T23:37:51.779Z,101435.96
2022-11-13T23:40:42.354Z,101435.77
2022-11-13T23:44:06.611Z,101438.13
2022-11-13T23:46:44.115Z,101434.11
2022-11-13T23:49:34.942Z,101432.14
2022-11-13T23:52:25.648Z,101427.73
2022-11-13T23:55:16.992Z,101424.35
2022-11-13T23:58:11.173Z,101423.55
